Time;durP1;ratioP1;P1;durP2;ratioP2;P2;SDS_P1;SDS_P2;PMS_P1;PMS_P2;Temp;Humidity;BMP_temperature;BMP_pressure;BME280_temperature;BME280_humidity;BME280_pressure;Samples;Min_cycle;Max_cycle;Signal;HPM_P1;HPM_P2
2022/09/23 00:01:32;;;;;;;13.35;7.57;;;15.60;99.90;;;16.06;61.79;101599.59;4824541;29;20054;-65
2022/09/23 00:04:01;;;;;;;12.75;7.50;;;15.60;99.90;;;16.17;61.56;101594.06;4824463;29;20046;-66
2022/09/23 00:06:29;;;;;;;10.63;7.63;;;15.70;99.90;;;16.13;61.59;101595.91;4824563;29;20087;-65
2022/09/23 00:08:59;;;;;;;14.57;7.97;;;15.70;99.90;;;16.08;61.33;101591.56;4824913;29;20046;-65
2022/09/23 00:11:29;;;;;;;9.43;7.50;;;15.60;99.90;;;15.99;61.72;101599.69;4824966;29;20125;-65
2022/09/23 00:13:59;;;;;;;10.35;8.73;;;15.60;99.90;;;15.99;61.49;101584.56;4824878;29;20054;-65
2022/09/23 00:16:32;;;;;;;11.52;8.82;;;15.60;99.90;;;16.02;61.22;101586.31;4824344;29;20050;-65
2022/09/23 00:19:03;;;;;;;13.32;8.90;;;15.60;99.90;;;16.14;61.15;101584.31;4824573;29;20065;-67
2022/09/23 00:21:31;;;;;;;10.30;9.27;;;15.70;99.90;;;16.23;60.97;101588.63;4824302;29;20647;-65
2022/09/23 00:24:02;;;;;;;12.13;9.60;;;15.70;99.90;;;16.26;60.76;101585.91;4824213;29;20291;-65
2022/09/23 00:26:30;;;;;;;;;;;15.80;99.90;;;16.23;60.62;101586.88;4823733;29;20516;-65
2022/09/23 00:28:58;;;;;;;10.82;9.68;;;15.90;99.90;;;16.25;60.62;101578.81;4823168;29;20424;-65
2022/09/23 00:31:27;;;;;;;9.80;8.85;;;15.80;99.90;;;16.08;60.68;101556.84;4824187;29;20063;-65
2022/09/23 00:33:58;;;;;;;11.13;10.13;;;15.90;99.90;;;16.23;60.67;101572.63;4823142;29;20050;-66
2022/09/23 00:36:28;;;;;;;10.82;9.73;;;15.80;99.90;;;16.22;61.16;101577.06;4824644;29;20050;-66
2022/09/23 00:38:57;;;;;;;9.65;8.68;;;15.70;99.90;;;16.25;60.92;101578.81;4824381;29;20080;-66
2022/09/23 00:41:27;;;;;;;10.95;9.35;;;15.80;99.90;;;16.28;60.84;101573.41;4824844;29;20413;-66
2022/09/23 00:43:57;;;;;;;;;;;15.80;99.90;;;16.24;60.69;101572.59;4824671;29;20046;-66
2022/09/23 00:46:35;;;;;;;10.43;8.45;;;15.80;99.90;;;16.15;60.77;101577.19;4823998;29;19925;-66
2022/09/23 00:49:10;;;;;;;9.32;8.43;;;15.70;99.90;;;16.06;60.88;101556.00;4823999;29;20082;-64
2022/09/23 00:51:55;;;;;;;14.40;9.45;;;15.60;99.90;;;16.18;60.63;101561.16;4823960;29;20046;-64
2022/09/23 00:54:26;;;;;;;10.27;9.05;;;15.70;99.90;;;16.18;60.56;101566.50;4824214;29;20412;-66
2022/09/23 00:56:58;;;;;;;11.48;9.38;;;15.70;99.90;;;16.09;60.98;101566.63;4823842;29;20058;-66
2022/09/23 00:59:27;;;;;;;9.90;8.90;;;15.60;99.90;;;16.09;61.33;101571.94;4823926;29;20149;-65
2022/09/23 01:01:59;;;;;;;11.85;9.68;;;15.60;99.90;;;15.99;61.24;101549.88;4824012;29;20062;-65
2022/09/23 01:04:29;;;;;;;9.43;8.55;;;15.60;99.90;;;16.16;61.11;101568.31;4823828;29;20125;-66
2022/09/23 01:06:58;;;;;;;;;;;15.70;99.90;;;16.15;61.34;101569.19;4826755;29;20054;-66
2022/09/23 01:09:26;;;;;;;11.80;9.65;;;15.70;99.90;;;16.12;61.70;101563.91;4827059;29;19931;-65
2022/09/23 01:12:08;;;;;;;13.68;10.05;;;15.60;99.90;;;16.17;61.46;101567.38;4827034;29;20408;-66
2022/09/23 01:14:48;;;;;;;11.13;10.07;;;15.60;99.90;;;16.22;61.69;101566.38;4827313;29;20073;-66
2022/09/23 01:17:26;;;;;;;9.98;8.98;;;15.70;99.90;;;16.29;61.47;101561.84;4826928;29;20146;-66
2022/09/23 01:20:31;;;;;;;10.90;9.70;;;15.80;99.90;;;16.32;61.26;101567.13;4841348;29;20058;-66
2022/09/23 01:23:22;;;;;;;12.10;9.98;;;15.90;99.90;;;16.24;61.06;101561.03;4827402;29;20050;-66
2022/09/23 01:26:19;;;;;;;10.68;9.38;;;15.80;99.90;;;16.04;61.38;101557.81;4826857;29;20054;-66
2022/09/23 01:29:17;;;;;;;11.68;9.85;;;15.60;99.90;;;15.78;62.36;101546.63;4826730;29;20103;-66
2022/09/23 01:31:55;;;;;;;10.55;9.43;;;15.40;99.90;;;15.60;62.93;101550.44;4826809;29;20059;-66
2022/09/23 01:34:31;;;;;;;12.07;10.45;;;15.20;99.90;;;15.54;63.58;101549.66;4826756;29;20071;-66
2022/09/23 01:37:07;;;;;;;11.10;9.95;;;15.10;99.90;;;15.37;64.08;101534.75;4840995;29;20054;-66
2022/09/23 01:39:42;;;;;;;11.07;9.75;;;15.00;99.90;;;15.12;64.94;101533.28;4825682;29;20050;-66
2022/09/23 01:42:28;;;;;;;10.93;9.57;;;14.70;99.90;;;14.94;66.01;101529.97;4826670;29;20050;-66
2022/09/23 01:45:00;;;;;;;13.40;10.48;;;14.60;99.90;;;14.84;66.48;101522.97;4826502;29;20058;-66
2022/09/23 01:47:35;;;;;;;14.50;11.20;;;14.40;99.90;;;14.35;66.54;101448.97;4841158;29;20058;-66
2022/09/23 01:50:55;;;;;;;12.60;10.38;;;14.30;99.90;;;14.59;67.08;101518.81;4826505;29;20408;-66
2022/09/23 01:53:02;;;;;;;14.13;10.82;;;14.20;99.90;;;14.73;67.02;101520.44;4826511;29;20054;-66
2022/09/23 01:55:36;;;;;;;15.70;10.95;;;14.30;99.90;;;14.76;66.72;101523.06;4826729;29;20142;-65
2022/09/23 01:58:08;;;;;;;15.10;11.30;;;14.40;99.90;;;14.77;66.69;101521.31;4826843;29;20053;-66
2022/09/23 02:00:41;;;;;;;13.00;11.60;;;14.40;99.90;;;14.73;66.72;101520.44;4840852;29;20237;-66
2022/09/23 02:03:16;;;;;;;15.18;11.82;;;14.30;99.90;;;14.69;66.97;101521.34;4840838;29;20054;-67
2022/09/23 02:05:48;;;;;;;14.68;11.90;;;14.30;99.90;;;14.77;66.85;101516.84;4826238;29;20098;-66
2022/09/23 02:08:23;;;;;;;15.90;10.93;;;14.40;99.90;;;14.93;66.57;101513.09;4826231;29;20061;-66
2022/09/23 02:10:55;;;;;;;12.93;11.13;;;14.50;99.90;;;15.02;66.15;101507.66;4826481;29;20085;-66
2022/09/23 02:13:31;;;;;;;12.63;10.40;;;14.60;99.90;;;14.67;66.07;101440.63;4826200;29;20042;-66
2022/09/23 02:16:08;;;;;;;14.25;11.15;;;14.70;99.90;;;15.13;65.78;101505.75;4826020;29;20089;-68
2022/09/23 02:18:47;;;;;;;15.77;10.90;;;14.80;99.90;;;15.32;65.42;101517.03;4825618;29;20087;-66
2022/09/23 02:21:16;;;;;;;12.75;11.18;;;14.90;99.90;;;15.43;65.29;101517.81;4826519;29;20055;-67
2022/09/23 02:23:50;;;;;;;11.82;10.63;;;15.10;99.90;;;15.57;64.71;101517.63;4840169;29;20518;-65
2022/09/23 02:26:23;;;;;;;12.75;10.90;;;15.20;99.90;;;15.68;64.21;101518.34;4826157;29;20058;-65
2022/09/23 02:29:03;;;;;;;11.63;10.43;;;15.30;99.90;;;15.79;63.66;101513.75;4826182;29;20050;-66
2022/09/23 02:31:37;;;;;;;11.77;10.10;;;15.40;99.90;;;15.84;63.45;101511.88;4826012;29;20068;-67
2022/09/23 02:34:22;;;;;;;11.05;10.05;;;15.40;99.90;;;15.89;63.08;101510.03;4840122;29;20458;-67
2022/09/23 02:37:06;;;;;;;12.93;10.50;;;15.50;99.90;;;15.87;63.01;101518.03;4825684;29;20051;-65
2022/09/23 02:39:47;;;;;;;13.60;10.68;;;15.50;99.90;;;15.98;63.21;101499.19;4825960;29;20061;-65
2022/09/23 02:42:20;;;;;;;13.85;10.23;;;15.50;99.90;;;16.02;63.24;101499.13;4825955;29;20126;-65
2022/09/23 02:44:49;;;;;;;11.00;9.90;;;15.60;99.90;;;16.01;62.85;101489.34;4826162;29;20058;-65
2022/09/23 02:47:23;;;;;;;13.73;10.45;;;15.60;99.90;;;16.06;62.85;101491.94;4825545;29;20047;-65
2022/09/23 02:49:55;;;;;;;12.63;11.05;;;15.60;99.90;;;16.02;62.61;101482.22;4825879;29;20046;-67
2022/09/23 02:52:24;;;;;;;12.10;10.25;;;15.50;99.90;;;15.93;62.91;101474.38;4825513;29;20089;-65
2022/09/23 02:54:52;;;;;;;13.30;10.88;;;15.50;99.90;;;15.93;63.03;101482.41;4839733;29;20050;-67
2022/09/23 02:57:21;;;;;;;11.02;9.88;;;15.40;99.90;;;15.92;63.71;101485.94;4825736;29;20054;-65
2022/09/23 02:59:49;;;;;;;11.60;10.40;;;15.40;99.90;;;15.91;63.14;101486.88;4825646;29;20046;-65
2022/09/23 03:02:54;;;;;;;12.38;10.40;;;15.40;99.90;;;15.85;63.37;101470.97;4825356;29;20042;-67
2022/09/23 03:05:30;;;;;;;11.73;10.52;;;15.30;99.90;;;15.84;63.81;101475.41;4825333;29;20054;-67
2022/09/23 03:08:24;;;;;;;12.20;10.85;;;15.30;99.90;;;15.82;63.51;101469.22;4825601;29;20131;-66
2022/09/23 03:10:58;;;;;;;11.70;10.50;;;15.30;99.90;;;15.84;63.36;101470.06;4839474;29;20394;-65
2022/09/23 03:13:35;;;;;;;11.60;9.90;;;15.40;99.90;;;15.88;63.33;101473.56;4825213;29;20083;-65
2022/09/23 03:16:12;;;;;;;12.35;10.65;;;15.40;99.90;;;15.85;63.43;101462.94;4825462;29;20081;-66
2022/09/23 03:18:46;;;;;;;15.25;10.50;;;15.40;99.90;;;15.88;63.52;101473.56;4825094;29;20050;-65
2022/09/23 03:21:24;;;;;;;14.00;10.40;;;15.40;99.90;;;15.88;63.56;101468.22;4825383;29;20133;-65
2022/09/23 03:23:55;;;;;;;12.10;10.70;;;15.40;99.90;;;15.84;64.01;101472.75;4825120;29;20061;-65
2022/09/23 03:26:29;;;;;;;12.65;10.75;;;15.40;99.90;;;15.86;63.83;101472.72;4825055;29;20093;-65
2022/09/23 03:29:03;;;;;;;11.98;10.88;;;15.40;99.90;;;15.81;63.89;101464.78;4825052;29;20064;-65
2022/09/23 03:31:32;;;;;;;11.88;10.63;;;15.40;99.90;;;15.80;64.03;101467.47;4825136;29;20055;-65
2022/09/23 03:34:05;;;;;;;12.30;11.05;;;15.40;99.90;;;15.60;64.03;101429.59;4824910;29;20042;-65
2022/09/23 03:36:50;;;;;;;16.35;11.32;;;15.40;99.90;;;15.69;64.31;101453.44;4825470;29;20046;-65
2022/09/23 03:39:30;;;;;;;12.85;11.35;;;15.30;99.90;;;15.56;64.98;101454.53;4824910;29;20080;-65
2022/09/23 03:42:04;;;;;;;12.02;10.63;;;15.20;99.90;;;15.57;65.09;101457.16;4825114;29;20050;-65
2022/09/23 03:44:38;;;;;;;13.05;10.52;;;15.10;99.90;;;15.64;65.13;101455.28;4825293;29;20050;-65
2022/09/23 03:47:07;;;;;;;15.38;10.32;;;15.20;99.90;;;15.70;65.34;101455.22;4824982;29;20046;-66
2022/09/23 03:49:38;;;;;;;12.25;11.05;;;15.20;99.90;;;15.69;65.55;101456.09;4824725;29;20455;-65
2022/09/23 03:52:08;;;;;;;15.60;10.50;;;15.30;99.90;;;15.64;65.45;101456.16;4824963;29;20137;-65
2022/09/23 03:54:36;;;;;;;13.10;11.05;;;15.20;99.90;;;15.63;65.48;101445.53;4824613;29;20046;-65
2022/09/23 03:57:06;;;;;;;12.65;10.70;;;15.20;99.90;;;15.64;65.51;101440.16;4824447;29;20050;-64
2022/09/23 03:59:34;;;;;;;11.65;10.43;;;15.20;99.90;;;15.59;65.50;101434.03;4824753;29;20042;-65
2022/09/23 04:02:02;;;;;;;11.73;10.20;;;15.10;99.90;;;15.55;65.93;101432.31;4824430;29;20053;-65
2022/09/23 04:04:33;;;;;;;11.50;10.23;;;15.10;99.90;;;15.53;66.33;101434.13;4824774;29;20046;-65
2022/09/23 04:07:02;;;;;;;11.93;10.82;;;15.00;99.90;;;15.56;66.41;101417.19;4824834;29;20053;-65
2022/09/23 04:09:31;;;;;;;12.82;9.98;;;15.10;99.90;;;15.64;66.57;101431.28;4824417;29;20495;-65
2022/09/23 04:12:00;;;;;;;13.07;10.95;;;15.20;99.90;;;15.71;66.04;101424.94;4838495;29;20050;-65
2022/09/23 04:14:29;;;;;;;15.00;10.65;;;15.30;99.90;;;15.83;65.85;101427.41;4824335;29;20053;-65
2022/09/23 04:16:57;;;;;;;14.88;10.57;;;15.40;99.90;;;15.32;65.65;101336.69;4824851;29;20165;-64
2022/09/23 04:19:26;;;;;;;11.60;10.48;;;15.40;99.90;;;15.96;65.39;101431.63;4824567;29;20046;-65
2022/09/23 04:21:54;;;;;;;14.35;10.82;;;15.50;99.90;;;16.04;65.26;101432.38;4824508;29;20113;-65
2022/09/23 04:24:23;;;;;;;11.95;10.43;;;15.60;99.90;;;16.05;65.31;101424.34;4824267;29;20047;-65
2022/09/23 04:26:55;;;;;;;11.43;10.25;;;15.60;99.90;;;16.07;65.25;101433.19;4824246;29;20060;-65
2022/09/23 04:29:25;;;;;;;12.02;10.40;;;15.60;99.90;;;16.06;65.14;101430.56;4824261;29;20051;-65
2022/09/23 04:31:54;;;;;;;11.77;10.48;;;15.60;99.90;;;16.06;64.94;101428.78;4824281;29;20062;-65
2022/09/23 04:34:22;;;;;;;11.77;10.02;;;15.60;99.90;;;16.05;65.11;101416.34;4824166;29;20038;-65
2022/09/23 04:36:51;;;;;;;12.13;10.07;;;15.60;99.90;;;16.05;64.94;101427.00;4824199;29;20069;-65
2022/09/23 04:39:19;;;;;;;13.05;11.18;;;15.60;99.90;;;16.05;64.89;101426.13;4823985;29;20050;-65
2022/09/23 04:41:48;;;;;;;14.52;10.35;;;15.60;99.90;;;16.15;65.04;101427.72;4826164;29;20062;-68
2022/09/23 04:44:19;;;;;;;18.45;10.57;;;15.70;99.90;;;16.19;64.93;101427.66;4826660;29;20072;-66
2022/09/23 04:46:48;;;;;;;;;;;15.70;99.90;;;16.19;64.52;101429.44;4828001;29;20054;-66
2022/09/23 04:49:17;;;;;;;14.35;10.88;;;15.80;99.90;;;16.24;64.42;101430.22;4827699;29;19978;-66
2022/09/23 04:51:46;;;;;;;15.55;10.95;;;15.90;99.90;;;16.31;64.45;101428.31;4827456;29;20065;-66
2022/09/23 04:54:15;;;;;;;14.93;10.18;;;15.80;99.90;;;16.32;64.28;101433.63;4827656;29;20382;-66
2022/09/23 04:56:43;;;;;;;11.63;10.05;;;15.90;99.90;;;16.37;64.34;101425.53;4827313;29;20050;-66
2022/09/23 04:59:11;;;;;;;11.80;10.02;;;15.90;99.90;;;16.44;64.18;101428.06;4827106;29;20481;-67
2022/09/23 05:01:41;;;;;;;19.00;10.60;;;16.00;99.90;;;16.44;64.16;101427.16;4827799;29;20053;-66
2022/09/23 05:04:12;;;;;;;14.60;10.93;;;16.00;99.90;;;16.54;63.99;101435.00;4827294;29;20485;-66
2022/09/23 05:06:42;;;;;;;;;;;16.10;99.90;;;16.18;63.79;101367.13;4827613;29;20051;-66
2022/09/23 05:09:16;;;;;;;16.40;10.73;;;16.20;99.90;;;16.60;64.10;101429.56;4826156;29;19977;-66
2022/09/23 05:11:45;;;;;;;12.57;10.85;;;16.20;99.90;;;16.74;63.83;101435.47;4841472;29;20312;-66
2022/09/23 05:14:13;;;;;;;16.02;10.43;;;16.30;99.90;;;16.68;63.95;101432.97;4826992;29;20042;-67
2022/09/23 05:16:43;;;;;;;13.32;10.30;;;16.30;99.90;;;16.63;64.16;101434.81;4826967;29;20044;-66
2022/09/23 05:19:12;;;;;;;15.82;10.30;;;16.30;99.90;;;16.57;64.46;101448.28;4826847;29;20524;-66
2022/09/23 05:21:41;;;;;;;16.20;10.10;;;16.20;99.90;;;16.55;64.89;101441.25;4827637;29;20119;-66
2022/09/23 05:24:09;;;;;;;19.20;11.18;;;16.20;99.90;;;16.55;65.12;101438.56;4826851;29;20046;-67
2022/09/23 05:26:38;;;;;;;16.30;10.88;;;16.10;99.90;;;16.57;65.16;101445.63;4826828;29;20042;-66
2022/09/23 05:29:06;;;;;;;17.30;11.07;;;16.10;99.90;;;16.57;65.46;101440.28;4841108;29;20058;-66
2022/09/23 05:31:35;;;;;;;19.73;11.25;;;16.10;99.90;;;16.53;65.24;101435.06;4826654;29;20065;-66
2022/09/23 05:34:06;;;;;;;14.23;10.63;;;16.10;99.90;;;16.54;65.66;101443.03;4826705;29;20093;-67
2022/09/23 05:36:36;;;;;;;14.60;9.60;;;16.00;99.90;;;16.52;65.59;101441.28;4826757;29;20405;-66
2022/09/23 05:39:07;;;;;;;12.50;10.35;;;16.10;99.90;;;16.36;65.93;101421.97;4826858;29;20065;-67
2022/09/23 05:41:39;;;;;;;13.57;10.13;;;16.00;99.90;;;16.46;66.11;101444.94;4826889;29;20058;-67
2022/09/23 05:44:07;;;;;;;13.30;10.30;;;16.00;99.90;;;16.39;66.15;101445.97;4841022;29;20137;-67
2022/09/23 05:46:36;;;;;;;13.05;10.02;;;16.00;99.90;;;16.33;66.72;101437.19;4826448;29;20054;-67
2022/09/23 05:49:06;;;;;;;15.60;10.85;;;15.90;99.90;;;16.28;66.88;101439.91;4840788;29;20557;-66
2022/09/23 05:51:35;;;;;;;13.48;11.48;;;15.80;99.90;;;16.16;67.20;101440.16;4826429;29;20058;-65
2022/09/23 05:54:05;;;;;;;19.48;11.15;;;15.80;99.90;;;16.10;67.55;101435.78;4826926;29;20095;-65
2022/09/23 05:56:34;;;;;;;16.50;11.17;;;15.80;99.90;;;16.20;67.53;101439.22;4826414;29;20050;-65
2022/09/23 05:59:04;;;;;;;20.38;11.90;;;15.80;99.90;;;16.23;67.79;101442.69;4826683;29;20053;-65
2022/09/23 06:01:37;;;;;;;16.83;11.20;;;15.80;99.90;;;16.22;68.09;101448.94;4826198;29;20077;-65
2022/09/23 06:04:12;;;;;;;23.00;11.68;;;15.80;99.90;;;16.25;67.97;101448.00;4826357;29;20565;-65
2022/09/23 06:06:42;;;;;;;17.80;11.57;;;15.80;99.90;;;16.09;67.97;101415.38;4826417;29;20066;-64
2022/09/23 06:09:14;;;;;;;16.50;12.03;;;15.80;99.90;;;16.21;68.13;101443.63;4826587;29;20140;-65
2022/09/23 06:11:43;;;;;;;16.58;11.90;;;15.80;99.90;;;16.23;68.23;101445.38;4826166;29;20051;-65
2022/09/23 06:14:13;;;;;;;17.35;12.13;;;15.80;99.90;;;16.20;68.49;101439.22;4826214;29;20042;-65
2022/09/23 06:16:42;;;;;;;;;;;15.80;99.90;;;16.09;68.81;101430.50;4826466;29;20137;-65
2022/09/23 06:19:12;;;;;;;16.25;12.48;;;15.80;99.90;;;16.22;68.70;101435.59;4826452;29;19924;-65
2022/09/23 06:21:40;;;;;;;18.58;12.13;;;15.80;99.90;;;16.25;68.95;101440.00;4825839;29;20073;-65
2022/09/23 06:24:10;;;;;;;20.38;12.23;;;15.90;99.90;;;16.28;69.15;101440.81;4825789;29;20058;-65
2022/09/23 06:26:44;;;;;;;18.30;12.18;;;15.90;99.90;;;16.29;69.28;101431.03;4840253;29;20111;-65
2022/09/23 06:29:13;;;;;;;16.90;12.90;;;15.90;99.90;;;16.35;69.44;101432.69;4840116;29;20053;-65
2022/09/23 06:31:42;;;;;;;16.08;12.20;;;16.00;99.90;;;16.41;69.58;101436.13;4825778;29;20062;-65
2022/09/23 06:34:13;;;;;;;14.63;11.93;;;16.00;99.90;;;16.42;69.59;101419.19;4826063;29;20050;-65
2022/09/23 06:36:43;;;;;;;19.90;12.32;;;16.10;99.90;;;16.46;69.69;101420.88;4825936;29;20055;-65
2022/09/23 06:39:14;;;;;;;16.40;12.70;;;16.10;99.90;;;16.40;69.86;101410.31;4825821;29;20077;-65
2022/09/23 06:41:43;;;;;;;14.93;12.15;;;16.10;99.90;;;16.59;69.89;101422.44;4839818;29;20042;-65
2022/09/23 06:44:15;;;;;;;22.42;12.98;;;16.10;99.90;;;16.63;70.05;101423.25;4825579;29;20057;-66
2022/09/23 06:46:43;;;;;;;20.55;13.43;;;16.20;99.90;;;16.67;70.05;101423.16;4839796;29;20085;-65
2022/09/23 06:49:13;;;;;;;28.88;13.18;;;16.30;99.90;;;16.73;70.16;101422.16;4826029;29;20393;-65
2022/09/23 06:51:41;;;;;;;22.23;12.57;;;16.30;99.90;;;16.72;70.60;101433.75;4825477;29;20042;-65
2022/09/23 06:54:10;;;;;;;20.60;12.43;;;16.30;99.90;;;16.78;70.76;101429.16;4825702;29;20051;-65
2022/09/23 06:56:38;;;;;;;24.00;13.52;;;16.40;99.90;;;16.85;70.89;101428.13;4825386;29;20129;-65
2022/09/23 06:59:09;;;;;;;22.98;12.60;;;16.40;99.90;;;16.84;70.96;101421.00;4825242;29;20067;-64
2022/09/23 07:01:37;;;;;;;27.23;13.30;;;16.50;99.90;;;16.14;71.07;101292.50;4825640;29;20050;-63
2022/09/23 07:04:07;;;;;;;28.90;13.75;;;16.50;99.90;;;16.87;72.09;101417.41;4838959;29;20485;-65
2022/09/23 07:06:37;;;;;;;28.00;13.02;;;16.50;99.90;;;16.86;72.57;101407.66;4825230;29;20498;-64
2022/09/23 07:09:07;;;;;;;24.73;13.35;;;16.60;99.90;;;17.09;72.91;101429.41;4826086;29;20125;-64
2022/09/23 07:11:36;;;;;;;34.30;14.73;;;16.60;99.90;;;17.14;72.75;101428.38;4825502;29;20058;-65
2022/09/23 07:14:05;;;;;;;29.88;14.52;;;16.70;99.90;;;17.17;72.69;101425.63;4825459;29;20125;-66
2022/09/23 07:16:33;;;;;;;24.75;14.40;;;16.80;99.90;;;17.35;72.86;101426.13;4825014;29;20073;-67
2022/09/23 07:19:01;;;;;;;28.83;13.90;;;16.90;99.90;;;17.51;73.00;101435.59;4825185;29;20565;-66
2022/09/23 07:21:30;;;;;;;22.35;14.05;;;17.10;99.90;;;17.62;72.82;101428.19;4825086;29;20042;-66
2022/09/23 07:24:00;;;;;;;26.13;14.48;;;17.20;99.90;;;17.64;72.70;101416.53;4825301;29;20050;-67
2022/09/23 07:26:28;;;;;;;25.50;14.82;;;17.30;99.90;;;17.70;72.34;101426.19;4825239;29;20046;-68
2022/09/23 07:29:03;;;;;;;29.33;15.18;;;17.30;99.90;;;17.59;72.14;101431.81;4825231;29;20394;-63
2022/09/23 07:31:33;;;;;;;22.05;14.13;;;17.20;99.90;;;17.67;72.45;101421.78;4823671;29;20152;-66
2022/09/23 07:34:10;;;;;;;31.90;14.68;;;17.30;99.90;;;17.72;72.32;101422.56;4824921;29;20054;-64
2022/09/23 07:36:40;;;;;;;25.33;14.88;;;17.30;99.90;;;17.76;71.81;101420.69;4824867;29;20057;-64
2022/09/23 07:39:12;;;;;;;25.47;14.10;;;17.40;99.90;;;17.72;71.38;101405.63;4824893;29;20601;-69
2022/09/23 07:41:43;;;;;;;27.58;14.57;;;17.50;99.90;;;17.86;70.91;101424.91;4824833;29;20049;-65
2022/09/23 07:44:12;;;;;;;21.60;13.95;;;17.50;99.90;;;17.73;70.74;101402.91;4824789;29;20497;-67
2022/09/23 07:46:40;;;;;;;21.45;14.18;;;17.60;99.90;;;17.84;70.69;101427.63;4824574;29;20055;-67
2022/09/23 07:49:09;;;;;;;22.67;13.57;;;17.50;99.90;;;17.84;70.59;101402.66;4824721;29;20103;-67
2022/09/23 07:51:40;;;;;;;24.63;14.38;;;17.60;99.90;;;18.07;70.56;101428.81;4824875;29;20050;-68
2022/09/23 07:54:13;;;;;;;22.73;13.82;;;17.70;99.90;;;18.13;70.13;101432.22;4824590;29;20056;-64
2022/09/23 07:56:43;;;;;;;19.08;12.32;;;17.70;99.90;;;18.23;69.74;101432.84;4824866;29;20050;-66
2022/09/23 07:59:17;;;;;;;20.10;12.55;;;17.80;99.90;;;18.27;68.82;101432.75;4824471;29;20123;-65
2022/09/23 08:01:48;;;;;;;19.15;13.10;;;17.90;99.90;;;18.35;68.89;101436.06;4824824;29;20046;-65
2022/09/23 08:04:19;;;;;;;22.90;13.27;;;18.00;99.90;;;18.39;68.86;101429.72;4824773;29;20129;-64
2022/09/23 08:06:50;;;;;;;18.70;12.73;;;18.00;99.90;;;18.55;68.51;101435.56;4824408;29;20058;-66
2022/09/23 08:09:23;;;;;;;19.25;12.95;;;18.10;99.90;;;18.65;68.11;101439.75;4824478;29;20038;-66
2022/09/23 08:11:52;;;;;;;24.15;12.77;;;18.30;99.90;;;18.70;67.99;101441.38;4824726;29;20050;-66
2022/09/23 08:14:21;;;;;;;18.42;11.50;;;18.40;99.90;;;18.85;67.58;101443.59;4824307;29;20049;-65
2022/09/23 08:16:51;;;;;;;19.13;13.13;;;18.50;99.90;;;18.96;67.51;101439.72;4823495;29;20232;-67
2022/09/23 08:19:19;;;;;;;16.77;11.90;;;18.60;99.90;;;18.77;66.96;101409.91;4824485;29;20046;-65
2022/09/23 08:21:50;;;;;;;17.10;12.82;;;18.60;99.90;;;19.04;67.08;101443.94;4824138;29;20160;-65
2022/09/23 08:24:22;;;;;;;16.00;12.60;;;18.70;99.90;;;19.01;66.85;101452.06;4824284;29;20060;-65
2022/09/23 08:26:53;;;;;;;18.73;11.90;;;18.70;99.90;;;19.00;66.37;101438.72;4824231;29;20046;-65
2022/09/23 08:29:22;;;;;;;;;;;18.70;99.90;;;19.01;67.06;101421.72;4824613;29;20461;-64
2022/09/23 08:31:52;;;;;;;15.85;12.18;;;18.80;99.90;;;19.17;66.59;101445.34;4824201;29;19929;-64
2022/09/23 08:34:22;;;;;;;16.73;12.05;;;18.80;99.90;;;19.08;65.85;101437.56;4824141;29;20122;-64
2022/09/23 08:36:52;;;;;;;17.75;12.18;;;18.80;99.90;;;19.23;65.87;101446.94;4822539;29;20058;-67
2022/09/23 08:39:22;;;;;;;13.45;11.68;;;18.80;99.90;;;19.24;65.67;101448.72;4824016;29;20073;-67
2022/09/23 08:42:03;;;;;;;;;;;18.80;99.90;;;19.27;66.12;101444.13;4824655;29;20058;-68
2022/09/23 08:44:40;;;;;;;;;;;18.90;99.90;;;19.28;65.65;101440.50;4824750;29;19952;-66
2022/09/23 08:47:17;;;;;;;14.63;11.07;;;19.00;99.90;;;19.28;65.35;101447.69;4824186;29;19931;-67
2022/09/23 08:49:56;;;;;;;15.18;11.32;;;18.90;99.90;;;19.32;65.00;101449.34;4824589;29;20046;-67
2022/09/23 08:52:33;;;;;;;16.38;11.63;;;18.90;99.90;;;19.29;64.91;101444.06;4823986;29;20076;-67
2022/09/23 08:55:04;;;;;;;16.27;11.38;;;18.90;99.90;;;19.34;64.98;101452.88;4823948;29;20077;-67
2022/09/23 08:57:44;;;;;;;18.17;11.40;;;19.00;99.90;;;19.29;65.01;101457.50;4824400;29;20468;-67
2022/09/23 09:00:41;;;;;;;15.45;11.48;;;18.90;99.90;;;19.35;65.16;101462.69;4823725;29;20073;-67
2022/09/23 09:03:21;;;;;;;14.82;11.95;;;18.90;99.90;;;19.40;64.95;101458.06;4823882;29;20046;-68
2022/09/23 09:05:52;;;;;;;14.25;11.13;;;19.00;99.90;;;19.44;64.84;101454.34;4824106;29;20091;-68
2022/09/23 09:08:30;;;;;;;18.52;11.98;;;19.00;99.90;;;19.40;64.72;101456.25;4824339;29;20050;-67
2022/09/23 09:11:00;;;;;;;14.95;11.43;;;19.10;99.90;;;19.43;64.78;101457.97;4823742;29;20054;-68
2022/09/23 09:13:32;;;;;;;16.00;11.88;;;19.10;99.90;;;19.47;64.54;101449.75;4823793;29;20074;-67
2022/09/23 09:16:22;;;;;;;15.45;12.18;;;19.10;99.90;;;19.49;64.93;101450.59;4824199;29;20061;-68
2022/09/23 09:19:19;;;;;;;17.33;12.10;;;19.10;99.90;;;19.48;65.21;101453.34;4823850;29;20055;-67
2022/09/23 09:21:51;;;;;;;15.00;11.85;;;19.10;99.90;;;19.51;65.20;101458.63;4823651;29;20485;-68
2022/09/23 09:24:29;;;;;;;20.98;13.82;;;19.20;99.90;;;19.51;64.92;101458.63;4823600;29;20051;-67
2022/09/23 09:27:00;;;;;;;19.05;12.77;;;19.10;99.90;;;19.58;65.34;101454.81;4838683;29;20543;-67
2022/09/23 09:29:37;;;;;;;16.55;13.00;;;19.10;99.90;;;19.59;65.36;101452.06;4826807;29;20133;-67
2022/09/23 09:32:19;;;;;;;21.85;13.38;;;19.20;99.90;;;19.60;64.69;101450.28;4826887;29;20058;-67
2022/09/23 09:34:54;;;;;;;18.52;11.70;;;19.20;99.90;;;19.65;64.49;101451.00;4826769;29;20146;-67
2022/09/23 09:37:29;;;;;;;16.17;12.25;;;19.30;99.90;;;19.61;64.70;101430.53;4841003;29;20088;-68
2022/09/23 09:39:58;;;;;;;20.02;12.20;;;19.30;99.90;;;19.57;65.27;101445.88;4826472;29;20057;-68
2022/09/23 09:42:39;;;;;;;14.15;11.75;;;19.20;99.90;;;19.60;64.71;101439.53;4827057;29;20520;-69
2022/09/23 09:45:18;;;;;;;17.08;11.48;;;19.30;99.90;;;19.61;64.58;101428.75;4826454;29;20416;-68
2022/09/23 09:47:55;;;;;;;15.23;11.65;;;19.20;99.90;;;19.60;64.26;101426.13;4827175;29;20523;-67
2022/09/23 09:50:48;;;;;;;19.15;12.35;;;19.20;99.90;;;19.51;63.96;101421.91;4826308;29;20078;-67
2022/09/23 09:53:24;;;;;;;16.40;11.93;;;19.20;99.90;;;19.57;64.16;101432.44;4826542;29;20046;-67
2022/09/23 09:56:02;;;;;;;17.25;12.02;;;19.20;99.90;;;19.63;64.36;101432.25;4826371;29;20050;-67
2022/09/23 09:58:40;;;;;;;17.85;11.85;;;19.20;99.90;;;19.69;64.74;101431.16;4826246;29;20042;-67
2022/09/23 10:01:09;;;;;;;16.90;12.75;;;19.30;99.90;;;19.66;64.66;101432.16;4826091;29;20050;-69
2022/09/23 10:03:43;;;;;;;17.17;12.43;;;19.30;99.90;;;19.65;64.56;101426.81;4826164;29;20052;-67
2022/09/23 10:06:20;;;;;;;18.15;12.20;;;19.20;99.90;;;19.68;64.93;101432.13;4840599;29;20050;-67
2022/09/23 10:09:15;;;;;;;16.10;12.48;;;19.30;99.90;;;19.66;65.12;101428.59;4826055;29;20142;-67
2022/09/23 10:12:10;;;;;;;18.10;12.88;;;19.30;99.90;;;19.67;65.78;101427.66;4826251;29;20061;-67
2022/09/23 10:14:40;;;;;;;19.90;12.82;;;19.30;99.90;;;19.54;64.97;101396.78;4826233;29;20042;-67
2022/09/23 10:17:19;;;;;;;18.50;13.63;;;19.30;99.90;;;19.65;65.06;101413.41;4826438;29;20073;-68
2022/09/23 10:19:50;;;;;;;15.65;13.05;;;19.30;99.90;;;19.58;65.22;101422.59;4825843;29;20141;-68
2022/09/23 10:22:25;;;;;;;16.73;13.32;;;19.30;99.90;;;19.61;65.61;101423.38;4825814;29;20103;-68
2022/09/23 10:24:56;;;;;;;17.63;13.13;;;19.20;99.90;;;19.66;65.41;101423.22;4826412;29;20126;-68
2022/09/23 10:27:33;;;;;;;19.23;12.65;;;19.20;99.90;;;19.64;65.06;101417.03;4825934;29;20516;-68